Time;durP1;ratioP1;P1;durP2;ratioP2;P2;SDS_P1;SDS_P2;PMS_P1;PMS_P2;Temp;Humidity;BMP_temperature;BMP_pressure;BME280_temperature;BME280_humidity;BME280_pressure;Samples;Min_cycle;Max_cycle;Signal;HPM_P1;HPM_P2
2022/05/02 00:01:33;;;;;;;11.27;6.45;;;;;;;7.92;77.67;102178.22;5016695;28;20366;-47
2022/05/02 00:03:58;;;;;;;10.75;5.80;;;;;;;7.91;77.79;102168.84;5016834;28;20073;-47
2022/05/02 00:06:24;;;;;;;9.98;6.05;;;;;;;7.98;77.69;102180.25;5016430;28;20116;-47
2022/05/02 00:08:49;;;;;;;9.07;6.28;;;;;;;7.83;77.96;102171.31;5016382;28;20029;-47
2022/05/02 00:11:14;;;;;;;8.82;6.30;;;;;;;7.91;77.60;102174.00;5015107;28;20032;-48
2022/05/02 00:13:40;;;;;;;11.48;6.47;;;;;;;7.86;78.74;102171.03;5016963;28;20018;-47
2022/05/02 00:16:08;;;;;;;12.20;6.28;;;;;;;7.89;78.03;102166.44;5016216;28;20042;-46
2022/05/02 00:18:34;;;;;;;9.85;6.07;;;;;;;7.82;78.35;102165.31;5016858;28;20033;-46
2022/05/02 00:20:59;;;;;;;10.02;6.40;;;;;;;7.71;77.93;102169.78;4998699;28;20432;-49
2022/05/02 00:23:24;;;;;;;10.82;6.55;;;;;;;7.67;78.46;102159.75;5016362;28;20028;-48
2022/05/02 00:25:50;;;;;;;15.15;6.80;;;;;;;7.70;78.80;102171.56;5015072;28;20026;-47
2022/05/02 00:28:15;;;;;;;9.30;6.70;;;;;;;7.64;78.29;102165.19;5016108;28;20079;-48
2022/05/02 00:30:42;;;;;;;11.63;6.90;;;;;;;7.64;79.02;102167.75;5016345;28;20029;-48
2022/05/02 00:33:08;;;;;;;8.82;6.43;;;;;;;7.62;79.48;102164.53;5016001;28;20026;-48
2022/05/02 00:35:33;;;;;;;9.73;6.68;;;;;;;7.68;78.98;102161.41;4998473;28;20535;-48
2022/05/02 00:37:58;;;;;;;8.52;5.93;;;;;;;7.44;79.80;102159.19;5016554;28;20025;-48
2022/05/02 00:40:24;;;;;;;10.75;6.30;;;;;;;7.50;79.89;102151.91;4998413;28;20096;-48
2022/05/02 00:42:50;;;;;;;11.20;6.57;;;;;;;7.46;79.52;102147.00;5016601;28;20021;-48
2022/05/02 00:45:18;;;;;;;11.63;6.80;;;;;;;7.41;79.95;102143.22;5015423;28;20033;-48
2022/05/02 00:47:55;;;;;;;10.25;6.35;;;;;;;7.38;79.96;102143.47;5015344;28;20471;-47
2022/05/02 00:50:32;;;;;;;9.55;6.32;;;;;;;7.46;80.51;102139.31;5015772;28;20125;-48
2022/05/02 00:52:58;;;;;;;9.43;6.63;;;;;;;7.44;80.15;102142.94;5015977;28;20022;-47
2022/05/02 00:55:23;;;;;;;12.30;7.03;;;;;;;7.34;80.43;102142.13;5015879;28;20021;-48
2022/05/02 00:57:49;;;;;;;15.15;7.00;;;;;;;7.39;80.69;102142.53;4982494;28;20022;-48
2022/05/02 01:00:14;;;;;;;13.07;7.05;;;;;;;7.30;80.27;102148.47;5015786;28;20457;-48
2022/05/02 01:02:39;;;;;;;11.45;6.80;;;;;;;7.29;80.83;102147.66;5014287;28;20040;-49
2022/05/02 01:05:05;;;;;;;11.27;6.60;;;;;;;7.23;80.69;102146.44;5015363;28;20025;-49
2022/05/02 01:07:30;;;;;;;10.95;6.82;;;;;;;7.23;81.19;102145.63;5014148;28;20075;-48
2022/05/02 01:09:56;;;;;;;11.10;6.93;;;;;;;7.24;80.81;102139.53;5015290;28;20021;-47
2022/05/02 01:12:24;;;;;;;10.63;6.65;;;;;;;7.22;80.94;102136.25;5015343;28;20040;-48
2022/05/02 01:14:53;;;;;;;10.93;6.68;;;;;;;7.14;81.32;102141.28;5015304;28;20068;-47
2022/05/02 01:17:19;;;;;;;11.50;7.65;;;;;;;7.16;81.16;102142.75;5015877;28;20044;-48
2022/05/02 01:19:45;;;;;;;12.05;6.82;;;;;;;7.11;81.30;102144.91;5015515;28;20030;-48
2022/05/02 01:22:10;;;;;;;11.93;7.10;;;;;;;7.01;81.16;102147.44;5015098;28;20034;-48
2022/05/02 01:24:38;;;;;;;11.40;6.95;;;;;;;6.92;81.14;102139.69;5015000;28;20038;-48
2022/05/02 01:27:05;;;;;;;13.20;6.80;;;;;;;6.94;82.20;102145.53;5015423;28;20093;-48
2022/05/02 01:29:32;;;;;;;12.70;6.93;;;;;;;6.97;82.03;102142.69;4998206;28;20097;-48
2022/05/02 01:31:58;;;;;;;10.77;6.78;;;;;;;6.97;81.50;102137.56;5015399;28;20024;-48
2022/05/02 01:34:23;;;;;;;10.68;6.97;;;;;;;7.00;81.74;102142.44;5015116;28;20170;-48
2022/05/02 01:36:49;;;;;;;11.73;6.97;;;;;;;6.93;81.74;102131.88;5015128;28;20078;-47
2022/05/02 01:39:15;;;;;;;10.98;7.15;;;;;;;6.89;81.63;102133.06;5014916;28;20017;-48
2022/05/02 01:41:40;;;;;;;10.13;7.28;;;;;;;6.94;81.90;102140.38;5015262;28;20022;-48
2022/05/02 01:44:06;;;;;;;12.05;7.43;;;;;;;6.89;81.96;102127.09;5014959;28;20025;-48
2022/05/02 01:46:31;;;;;;;12.18;6.95;;;;;;;6.89;81.99;102137.38;5014515;28;20031;-54
2022/05/02 01:48:57;;;;;;;14.18;7.05;;;;;;;6.88;81.93;102128.06;5014570;28;20351;-48
2022/05/02 01:51:22;;;;;;;10.90;7.25;;;;;;;6.89;82.02;102130.47;4997289;28;20040;-47
2022/05/02 01:53:48;;;;;;;10.05;6.72;;;;;;;6.85;81.57;102131.69;4996982;28;20022;-48
2022/05/02 01:56:13;;;;;;;11.65;6.57;;;;;;;6.85;81.81;102126.56;5014486;28;20049;-48
2022/05/02 01:58:39;;;;;;;11.48;7.40;;;;;;;6.88;81.46;102126.28;4996511;28;20058;-48
2022/05/02 02:01:04;;;;;;;10.40;6.93;;;;;;;6.81;81.81;102126.94;5014873;28;20025;-48
2022/05/02 02:03:30;;;;;;;12.63;7.47;;;;;;;6.72;82.26;102121.63;5014900;28;20025;-48
2022/05/02 02:05:58;;;;;;;14.13;7.82;;;;;;;6.71;82.40;102122.56;5014522;28;20432;-48
2022/05/02 02:08:26;;;;;;;9.27;7.10;;;;;;;6.69;82.52;102123.63;5014251;28;20033;-47
2022/05/02 02:10:55;;;;;;;13.60;7.85;;;;;;;6.70;82.21;102115.81;5014714;28;20026;-48
2022/05/02 02:13:21;;;;;;;13.90;7.55;;;;;;;6.58;82.44;102108.31;4996572;28;20033;-48
2022/05/02 02:15:46;;;;;;;15.57;8.18;;;;;;;6.49;83.22;102112.47;5014009;28;20124;-48
2022/05/02 02:18:12;;;;;;;10.75;7.95;;;;;;;6.35;84.25;102120.47;5014111;28;20068;-48
2022/05/02 02:20:40;;;;;;;14.63;7.53;;;;;;;6.42;83.58;102108.78;5014140;28;20026;-48
2022/05/02 02:23:05;;;;;;;10.35;7.78;;;;;;;6.43;84.09;102115.53;5014339;28;20030;-48
2022/05/02 02:25:32;;;;;;;13.55;7.70;;;;;;;6.39;82.89;102116.72;5014022;28;20484;-48
2022/05/02 02:28:00;;;;;;;12.82;7.95;;;;;;;6.43;83.30;102113.78;5014211;28;20030;-48
2022/05/02 02:30:25;;;;;;;12.65;8.70;;;;;;;6.40;84.13;102110.66;4996321;28;20052;-52
2022/05/02 02:32:51;;;;;;;12.65;8.63;;;;;;;6.38;84.28;102113.34;5013881;28;20025;-48
2022/05/02 02:35:18;;;;;;;14.68;8.32;;;;;;;6.37;84.01;102116.03;5014200;28;20018;-47
2022/05/02 02:37:44;;;;;;;12.07;8.25;;;;;;;6.39;83.84;102112.41;5014100;28;20030;-48
2022/05/02 02:40:10;;;;;;;14.73;8.32;;;;;;;6.38;83.65;102117.66;5014017;28;20036;-47
2022/05/02 02:42:36;;;;;;;22.13;8.00;;;;;;;6.32;83.42;102114.66;5014035;28;20026;-47
2022/05/02 02:45:02;;;;;;;15.98;8.40;;;;;;;6.30;84.30;102108.84;5013838;28;20029;-47
2022/05/02 02:47:27;;;;;;;12.90;8.05;;;;;;;6.33;84.45;102107.78;5014274;28;20042;-48
2022/05/02 02:49:52;;;;;;;16.35;8.27;;;;;;;6.33;84.24;102108.59;5013983;28;20061;-48
2022/05/02 02:52:18;;;;;;;12.65;8.10;;;;;;;6.32;83.96;102109.50;5013895;28;20024;-48
2022/05/02 02:54:43;;;;;;;13.68;8.15;;;;;;;6.34;83.53;102109.41;5013575;28;20057;-48
2022/05/02 02:57:08;;;;;;;11.57;8.10;;;;;;;6.31;84.01;102104.53;5013648;28;20480;-48
2022/05/02 02:59:33;;;;;;;13.90;8.48;;;;;;;6.35;83.94;102098.19;5013923;28;20109;-48
2022/05/02 03:01:59;;;;;;;11.57;8.00;;;;;;;6.30;83.57;102098.59;5013898;28;20030;-48
2022/05/02 03:07:09;;;;;;;10.90;7.93;;;;;;;6.26;83.38;102094.63;5013792;28;20105;-48
2022/05/02 03:09:34;;;;;;;12.73;8.40;;;;;;;6.29;82.80;102096.13;5014870;28;20045;-48
2022/05/02 03:11:59;;;;;;;10.00;7.53;;;;;;;6.27;82.84;102093.69;5017852;28;20029;-48
2022/05/02 03:14:25;;;;;;;11.50;7.88;;;;;;;6.07;82.74;102086.78;5017381;28;20042;-48
2022/05/02 03:16:50;;;;;;;11.05;7.80;;;;;;;5.79;83.72;102089.00;5017978;28;20079;-48
2022/05/02 03:19:15;;;;;;;12.93;8.00;;;;;;;5.84;84.23;102086.06;5017713;28;20472;-47
2022/05/02 03:21:41;;;;;;;11.07;7.90;;;;;;;5.91;83.62;102082.06;5017671;28;20030;-48
2022/05/02 03:24:06;;;;;;;13.27;7.82;;;;;;;5.88;84.43;102079.75;5017625;28;20029;-48
2022/05/02 03:26:32;;;;;;;14.07;8.20;;;;;;;5.94;84.46;102083.63;5017272;28;20030;-48
2022/05/02 03:28:57;;;;;;;14.57;8.27;;;;;;;6.00;84.67;102086.50;5017424;28;20029;-48
2022/05/02 03:31:22;;;;;;;11.95;8.32;;;;;;;5.96;83.99;102084.31;5017167;28;20033;-47
2022/05/02 03:33:48;;;;;;;12.75;8.43;;;;;;;6.00;84.22;102077.97;5017126;28;20061;-48
2022/05/02 03:36:13;;;;;;;11.65;8.00;;;;;;;5.89;83.64;102083.94;5017121;28;20413;-48
2022/05/02 03:38:38;;;;;;;16.83;7.80;;;;;;;5.71;83.35;102082.88;5017614;28;20034;-47
2022/05/02 03:41:03;;;;;;;11.13;7.78;;;;;;;5.66;83.89;102081.47;5017045;28;20381;-48
2022/05/02 03:43:29;;;;;;;12.63;7.75;;;;;;;5.63;84.00;102088.59;5017313;28;20026;-48
2022/05/02 03:45:54;;;;;;;13.75;7.70;;;;;;;5.69;84.22;102082.97;5016870;28;20033;-48
2022/05/02 03:48:20;;;;;;;10.07;7.38;;;;;;;5.74;84.19;102083.44;5016939;28;20025;-48
2022/05/02 03:50:46;;;;;;;12.00;7.97;;;;;;;5.74;83.97;102077.50;5016761;28;20156;-48
2022/05/02 03:53:15;;;;;;;11.40;7.90;;;;;;;5.70;83.93;102073.53;4999193;28;20057;-48
2022/05/02 03:55:42;;;;;;;12.82;7.80;;;;;;;5.72;83.90;102077.59;5017073;28;20053;-48
2022/05/02 03:58:08;;;;;;;11.20;7.47;;;;;;;5.68;84.00;102075.44;5016920;28;20037;-49
2022/05/02 04:00:34;;;;;;;12.27;7.70;;;;;;;5.68;83.69;102080.56;4999381;28;20377;-48
2022/05/02 04:02:59;;;;;;;10.93;7.55;;;;;;;5.65;83.55;102076.47;5016614;28;20034;-48
2022/05/02 04:05:24;;;;;;;15.10;7.88;;;;;;;5.64;83.88;102074.88;5016496;28;20032;-48
2022/05/02 04:07:50;;;;;;;10.80;7.40;;;;;;;5.68;83.79;102085.69;5016855;28;20029;-47
2022/05/02 04:10:15;;;;;;;12.80;7.80;;;;;;;5.67;83.67;102082.31;5016683;28;20076;-48
2022/05/02 04:12:42;;;;;;;11.93;7.20;;;;;;;5.69;83.01;102085.53;5016370;28;20060;-48
2022/05/02 04:15:12;;;;;;;12.73;7.50;;;;;;;5.58;83.23;102077.91;5016410;28;20047;-47
2022/05/02 04:17:38;;;;;;;14.70;7.32;;;;;;;5.61;83.11;102088.75;5017177;28;20465;-48
2022/05/02 04:20:05;;;;;;;14.50;8.48;;;;;;;5.58;83.05;102083.84;5016171;28;20029;-48
2022/05/02 04:22:30;;;;;;;10.82;7.40;;;;;;;5.64;83.43;102085.94;4998616;28;20088;-47
2022/05/02 04:24:56;;;;;;;11.68;7.65;;;;;;;5.63;82.98;102091.16;5016682;28;20428;-48
2022/05/02 04:27:21;;;;;;;10.02;7.28;;;;;;;5.65;83.08;102095.25;4998983;28;20037;-48
2022/05/02 04:29:47;;;;;;;11.70;7.57;;;;;;;5.63;82.45;102091.16;5016361;28;20030;-48
2022/05/02 04:32:12;;;;;;;13.70;7.68;;;;;;;5.66;82.75;102093.50;5016101;28;20476;-54
2022/05/02 04:34:37;;;;;;;10.90;7.63;;;;;;;5.66;82.49;102083.22;4998814;28;20037;-48
2022/05/02 04:37:03;;;;;;;13.68;7.22;;;;;;;5.67;82.24;102095.13;4998397;28;20079;-48
2022/05/02 04:39:28;;;;;;;13.88;7.72;;;;;;;5.69;82.19;102088.09;5016242;28;20097;-48
2022/05/02 04:41:53;;;;;;;16.77;8.65;;;;;;;5.78;82.18;102087.41;4998426;28;20029;-48
2022/05/02 04:44:18;;;;;;;13.63;8.00;;;;;;;5.77;81.83;102088.31;5015790;28;20045;-47
2022/05/02 04:46:44;;;;;;;12.50;8.23;;;;;;;5.80;81.57;102090.63;5014454;28;20034;-47
2022/05/02 04:49:09;;;;;;;11.95;7.90;;;;;;;5.82;81.44;102099.03;5016322;28;20061;-47
2022/05/02 04:51:34;;;;;;;12.57;8.25;;;;;;;5.88;81.25;102095.97;5015688;28;20061;-47
2022/05/02 04:54:00;;;;;;;16.83;8.60;;;;;;;5.97;80.82;102096.19;5015672;28;20030;-46
2022/05/02 04:56:25;;;;;;;12.68;8.20;;;;;;;6.02;80.76;102096.66;5015582;28;20026;-47
2022/05/02 04:58:50;;;;;;;16.25;7.60;;;;;;;6.08;80.79;102103.84;5016138;28;20065;-47
2022/05/02 05:01:15;;;;;;;15.00;8.43;;;;;;;6.06;81.13;102098.00;4997927;28;20424;-47
2022/05/02 05:03:41;;;;;;;14.82;8.63;;;;;;;6.06;80.93;102100.56;5015751;28;20030;-47
2022/05/02 05:06:06;;;;;;;12.82;8.15;;;;;;;6.16;80.95;102104.03;5015589;28;20025;-47
2022/05/02 05:08:32;;;;;;;13.30;7.97;;;;;;;6.28;80.48;102099.66;5015327;28;20030;-47
2022/05/02 05:11:05;;;;;;;14.52;8.82;;;;;;;6.35;80.48;102100.75;5015329;28;20038;-47
2022/05/02 05:13:41;;;;;;;18.65;8.70;;;;;;;6.42;80.23;102096.75;5015291;28;20021;-47
2022/05/02 05:16:26;;;;;;;13.32;8.45;;;;;;;6.53;80.33;102096.69;4994833;28;20046;-47
2022/05/02 05:19:07;;;;;;;16.33;8.73;;;;;;;6.58;80.36;102091.13;4995813;28;20113;-47
2022/05/02 05:21:42;;;;;;;14.55;8.80;;;;;;;6.65;79.96;102097.41;4995874;28;20105;-46
2022/05/02 05:24:29;;;;;;;13.98;9.10;;;;;;;6.76;79.82;102097.31;4996100;28;20030;-47
2022/05/02 05:27:12;;;;;;;13.20;9.13;;;;;;;6.78;79.70;102092.84;4995376;28;20023;-47
2022/05/02 05:29:57;;;;;;;15.13;9.35;;;;;;;6.80;79.63;102091.91;4994079;28;20026;-46
2022/05/02 05:32:53;;;;;;;15.90;9.10;;;;;;;6.82;80.17;102098.56;4995330;28;20041;-47
2022/05/02 05:35:24;;;;;;;13.23;8.93;;;;;;;7.05;80.51;102090.63;4995618;28;20050;-46
2022/05/02 05:38:06;;;;;;;13.77;8.88;;;;;;;7.20;80.25;102102.16;4994231;28;20034;-47
2022/05/02 05:40:39;;;;;;;14.30;9.02;;;;;;;7.32;79.24;102087.44;4993946;28;20032;-47
2022/05/02 05:43:37;;;;;;;18.00;9.80;;;;;;;7.43;79.19;102090.69;4995065;28;20037;-47
2022/05/02 05:46:39;;;;;;;16.42;9.02;;;;;;;7.55;79.25;102093.16;4986617;28;20041;-47
2022/05/02 05:49:35;;;;;;;13.82;9.30;;;;;;;7.73;78.30;102101.00;4995068;28;20480;-47
2022/05/02 05:52:08;;;;;;;12.85;9.10;;;;;;;7.74;79.49;102107.75;4995206;28;20406;-47
2022/05/02 05:54:59;;;;;;;14.32;9.35;;;;;;;7.87;78.92;102101.41;4995216;28;20110;-47
2022/05/02 05:58:07;;;;;;;13.43;9.15;;;;;;;14.29;59.56;102097.69;4995151;28;20113;-47
2022/05/02 06:00:45;;;;;;;12.20;8.40;;;;;;;17.65;46.87;102097.84;4994730;28;20038;-46
2022/05/02 06:03:14;;;;;;;12.68;8.60;;;;;;;19.01;42.79;102108.34;4995235;28;20037;-45
2022/05/02 06:05:47;;;;;;;13.13;8.23;;;;;;;19.05;42.54;102106.13;4994928;28;20087;-46
2022/05/02 06:08:20;;;;;;;9.75;7.47;;;;;;;20.20;39.60;102101.31;4993527;28;20445;-45
2022/05/02 06:10:47;;;;;;;13.90;7.82;;;;;;;20.68;39.12;102107.63;4995052;28;20121;-45
2022/05/02 06:13:15;;;;;;;16.05;7.60;;;;;;;21.07;37.82;102101.03;4994442;28;20088;-45
2022/05/02 06:18:33;;;;;;;15.80;7.28;;;;;;;21.79;36.28;102102.75;5014682;28;20118;-45
2022/05/02 06:21:02;;;;;;;8.70;6.88;;;;;;;21.93;36.44;102093.56;4997225;28;20044;-46
2022/05/02 06:23:35;;;;;;;9.80;6.97;;;;;;;22.32;35.33;102101.75;5014045;28;20400;-45
2022/05/02 06:26:02;;;;;;;10.18;7.10;;;;;;;22.53;34.90;102101.13;5013890;28;20057;-45
2022/05/02 06:28:37;;;;;;;10.60;7.10;;;;;;;23.25;33.82;102106.84;5014663;28;20084;-45
2022/05/02 06:31:05;;;;;;;11.13;7.15;;;;;;;23.28;32.87;102106.38;5014189;28;20030;-44
2022/05/02 06:33:31;;;;;;;11.30;7.55;;;;;;;22.79;33.78;102101.59;5014130;28;20037;-46
2022/05/02 06:36:05;;;;;;;11.13;7.13;;;;;;;22.83;33.56;102100.06;5013981;28;20022;-45
2022/05/02 06:38:59;;;;;;;20.40;7.57;;;;;;;23.72;31.70;102093.34;5014019;28;20112;-45
2022/05/02 06:41:49;;;;;;;9.05;7.05;;;;;;;23.63;33.22;102099.00;5013192;28;20033;-45
2022/05/02 06:44:42;;;;;;;9.70;7.50;;;;;;;24.31;31.17;102094.34;5013396;28;20346;-46
2022/05/02 06:47:34;;;;;;;11.07;7.60;;;;;;;24.84;29.23;102102.56;5013195;28;20032;-45
2022/05/02 06:50:03;;;;;;;9.48;7.32;;;;;;;25.12;28.74;102098.84;5013605;28;20076;-47
2022/05/02 06:52:37;;;;;;;10.38;7.60;;;;;;;24.95;29.54;102091.03;5013686;28;20377;-45
2022/05/02 06:55:28;;;;;;;9.55;6.70;;;;;;;25.61;28.23;102080.16;5013716;28;20068;-45
2022/05/02 06:58:00;;;;;;;12.10;7.25;;;;;;;25.36;28.21;102087.91;4995910;28;20120;-46
2022/05/02 07:00:34;;;;;;;10.43;7.40;;;;;;;25.54;27.74;102079.56;5013534;28;20084;-47
2022/05/02 07:03:30;;;;;;;9.88;7.22;;;;;;;25.51;27.80;102082.72;4996294;28;20030;-46
2022/05/02 07:06:08;;;;;;;10.68;7.13;;;;;;;25.13;27.58;102084.56;5013960;28;20034;-46
2022/05/02 07:08:48;;;;;;;10.55;7.72;;;;;;;25.18;27.69;102084.63;5013426;28;20048;-45
2022/05/02 07:11:19;;;;;;;11.07;7.53;;;;;;;25.46;28.10;102080.03;5013743;28;20022;-47
2022/05/02 07:14:10;;;;;;;12.45;7.70;;;;;;;25.29;26.98;102082.88;5013614;28;20045;-45
2022/05/02 07:16:44;;;;;;;13.82;7.70;;;;;;;24.52;27.88;102079.53;5013204;28;20501;-45
2022/05/02 07:19:48;;;;;;;9.35;7.38;;;;;;;24.46;28.43;102074.44;5013591;28;20030;-45
2022/05/02 07:22:28;;;;;;;14.98;8.13;;;;;;;25.12;27.58;102085.63;5013582;28;20425;-45
2022/05/02 07:25:12;;;;;;;24.75;8.98;;;;;;;25.79;27.12;102086.84;5013275;28;20029;-45
2022/05/02 07:27:59;;;;;;;12.18;7.90;;;;;;;26.09;26.49;102088.03;5013500;28;20029;-45
2022/05/02 07:30:25;;;;;;;14.43;8.20;;;;;;;25.51;26.77;102082.72;5013347;28;20353;-45
2022/05/02 07:32:53;;;;;;;11.93;7.97;;;;;;;25.02;27.74;102082.09;5013406;28;20044;-45
2022/05/02 07:35:18;;;;;;;11.90;8.05;;;;;;;25.29;27.32;102082.03;5013430;28;20040;-45
2022/05/02 07:37:44;;;;;;;13.85;8.70;;;;;;;24.62;27.77;102081.47;4996033;28;20473;-46
2022/05/02 07:40:16;;;;;;;11.93;8.20;;;;;;;24.20;28.19;102084.72;5013363;28;20033;-45
2022/05/02 07:42:43;;;;;;;12.48;8.75;;;;;;;23.50;29.07;102087.97;5013031;28;20029;-47
2022/05/02 07:45:10;;;;;;;15.55;8.38;;;;;;;22.82;29.70;102082.69;5013280;28;20041;-46
2022/05/02 07:47:37;;;;;;;14.57;7.80;;;;;;;21.44;32.03;102085.13;5013503;28;20052;-45
2022/05/02 07:50:05;;;;;;;11.90;7.85;;;;;;;19.75;34.14;102087.66;4995366;28;20121;-46
2022/05/02 07:52:33;;;;;;;11.45;7.63;;;;;;;18.14;37.86;102083.50;5012883;28;20076;-46
2022/05/02 07:55:01;;;;;;;10.88;8.02;;;;;;;18.75;38.02;102093.56;5013721;28;20080;-46
2022/05/02 07:57:28;;;;;;;13.80;8.18;;;;;;;19.25;37.74;102085.81;5017248;28;20112;-46
2022/05/02 07:59:56;;;;;;;10.25;6.93;;;;;;;18.98;36.64;102089.63;5016590;28;20033;-46
2022/05/02 08:02:22;;;;;;;12.05;6.63;;;;;;;19.50;37.93;102085.00;5016756;28;20507;-45
2022/05/02 08:04:48;;;;;;;9.45;6.85;;;;;;;19.41;38.48;102084.47;4998773;28;20100;-46
2022/05/02 08:07:33;;;;;;;11.90;7.15;;;;;;;19.56;37.26;102087.59;5016455;28;20117;-46
2022/05/02 08:10:24;;;;;;;15.50;6.90;;;;;;;19.26;36.04;102084.81;5016570;28;20022;-46
2022/05/02 08:13:15;;;;;;;10.60;6.57;;;;;;;18.01;37.86;102084.34;5016674;28;20030;-45
2022/05/02 08:16:05;;;;;;;10.95;6.65;;;;;;;18.72;37.07;102091.34;5016077;28;20589;-46
2022/05/02 08:19:01;;;;;;;11.18;7.13;;;;;;;18.70;37.19;102094.19;5015867;28;20034;-46
2022/05/02 08:21:41;;;;;;;11.27;7.47;;;;;;;19.41;38.06;102086.31;5016167;28;20030;-47
2022/05/02 08:27:59;;;;;;;8.57;6.80;;;;;;;19.72;36.16;102081.03;5016750;28;20041;-46
2022/05/02 08:30:25;;;;;;;10.50;6.93;;;;;;;19.34;36.63;102089.78;4936549;29;20394;-46
2022/05/02 08:33:08;;;;;;;8.10;6.20;;;;;;;19.38;35.92;102083.09;4936426;29;20053;-45
2022/05/02 08:35:39;;;;;;;11.05;6.15;;;;;;;19.93;35.55;102090.28;4982796;28;20111;-45
2022/05/02 08:38:19;;;;;;;10.57;5.88;;;;;;;20.20;35.20;102079.53;4998183;28;20026;-45
2022/05/02 08:40:48;;;;;;;13.18;6.13;;;;;;;19.25;35.16;102080.59;5016141;28;20036;-46
2022/05/02 08:43:28;;;;;;;10.13;6.50;;;;;;;18.84;37.26;102087.06;5016039;28;20076;-46
2022/05/02 08:46:13;;;;;;;9.30;5.80;;;;;;;18.82;35.62;102085.69;5015872;28;20069;-47
2022/05/02 08:52:15;;;;;;;11.10;6.00;;;;;;;18.82;37.90;102089.13;5015862;28;20125;-46
2022/05/02 08:55:08;;;;;;;10.73;6.38;;;;;;;19.33;34.89;102076.88;5015807;28;20042;-53
2022/05/02 08:57:48;;;;;;;;;;;;;;;19.12;36.95;102068.38;5016497;28;20029;-45
2022/05/02 09:00:51;;;;;;;10.82;5.88;;;;;;;19.59;36.37;102066.19;5015628;28;19909;-48
2022/05/02 09:03:50;;;;;;;12.03;5.80;;;;;;;18.69;34.69;102071.63;4997917;28;20022;-46
2022/05/02 09:06:34;;;;;;;10.15;5.57;;;;;;;19.64;35.33;102067.34;4997379;28;20060;-48
2022/05/02 09:09:24;;;;;;;9.10;5.13;;;;;;;19.43;35.04;102071.97;5015086;28;20061;-47
2022/05/02 09:12:20;;;;;;;9.18;5.32;;;;;;;20.51;34.44;102066.22;5015325;28;20029;-47
2022/05/02 09:15:11;;;;;;;11.20;5.03;;;;;;;20.59;31.29;102065.13;5014586;28;20060;-45
2022/05/02 09:18:00;;;;;;;6.65;5.00;;;;;;;19.07;34.71;102070.00;5015370;28;20049;-45
2022/05/02 09:20:47;;;;;;;9.18;5.47;;;;;;;18.43;35.56;102072.53;5015232;28;20022;-46
2022/05/02 09:23:46;;;;;;;6.80;5.13;;;;;;;18.98;35.14;102061.59;5014832;28;20044;-46
2022/05/02 09:26:35;;;;;;;7.38;4.70;;;;;;;20.20;32.57;102054.09;4977979;28;20053;-45
2022/05/02 09:29:32;;;;;;;8.23;4.68;;;;;;;20.82;33.44;102055.72;5015288;28;20026;-46
2022/05/02 09:32:08;;;;;;;6.85;5.10;;;;;;;20.74;32.80;102056.84;5014751;28;20105;-45
2022/05/02 09:34:38;;;;;;;7.43;4.75;;;;;;;20.43;32.70;102055.22;5014699;28;20036;-45
2022/05/02 09:37:13;;;;;;;8.35;5.15;;;;;;;20.89;31.79;102045.94;5015135;28;20021;-45
2022/05/02 09:39:59;;;;;;;9.48;4.82;;;;;;;20.56;32.73;102051.66;5015026;28;20025;-45
2022/05/02 09:42:27;;;;;;;8.07;4.40;;;;;;;21.05;30.67;102047.88;5015038;28;20022;-45
2022/05/02 09:51:34;;;;;;;6.97;4.70;;;;;;;20.98;31.69;102052.47;5015403;28;20059;-45
2022/05/02 09:54:14;;;;;;;9.45;5.25;;;;;;;21.60;31.25;102044.19;5014709;28;20026;-45
2022/05/02 09:56:45;;;;;;;10.55;5.53;;;;;;;21.31;31.72;102048.50;5014705;28;20350;-45
2022/05/02 09:59:22;;;;;;;8.98;5.25;;;;;;;20.78;31.64;102051.97;5014462;28;20021;-45
2022/05/02 10:02:02;;;;;;;6.93;4.90;;;;;;;20.28;32.95;102045.91;5014579;28;20022;-46
2022/05/02 10:05:05;;;;;;;8.65;5.40;;;;;;;19.63;35.25;102045.56;5014529;28;20461;-46
2022/05/02 10:07:36;;;;;;;6.73;5.20;;;;;;;19.55;32.34;102043.22;4996720;28;20025;-45
2022/05/02 10:10:13;;;;;;;7.88;5.10;;;;;;;21.10;31.45;102047.22;5014464;28;20385;-46
2022/05/02 10:12:49;;;;;;;9.00;5.03;;;;;;;21.16;32.73;102039.22;5014482;28;20420;-48
2022/05/02 10:15:38;;;;;;;9.70;5.55;;;;;;;18.15;35.84;102048.50;5014136;28;20092;-44
2022/05/02 10:18:32;;;;;;;14.02;5.32;;;;;;;20.39;35.46;102039.09;5014135;28;20117;-44
2022/05/02 10:21:22;;;;;;;7.30;5.28;;;;;;;21.20;32.92;102031.69;5014499;28;20025;-46
2022/05/02 10:24:09;;;;;;;8.20;5.10;;;;;;;21.39;31.81;102035.03;5014558;28;20029;-45
2022/05/02 10:26:37;;;;;;;8.30;6.00;;;;;;;20.22;32.31;102040.72;4996190;28;20030;-46
2022/05/02 10:29:02;;;;;;;8.10;5.40;;;;;;;20.55;33.38;102032.47;5014033;28;20037;-46
2022/05/02 10:31:34;;;;;;;7.23;5.20;;;;;;;21.47;32.39;102032.06;5013916;28;20170;-44
2022/05/02 10:34:02;;;;;;;8.13;5.30;;;;;;;21.61;32.28;102028.19;5014102;28;20666;-45
2022/05/02 10:36:35;;;;;;;9.75;6.10;;;;;;;22.53;33.03;102037.91;5013693;28;20101;-45
2022/05/02 10:39:14;;;;;;;10.57;6.20;;;;;;;21.82;34.74;102026.78;5014024;28;20358;-47
2022/05/02 10:41:56;;;;;;;10.02;6.25;;;;;;;21.67;35.32;102030.94;5013996;28;20029;-44
2022/05/02 10:44:27;;;;;;;8.52;5.90;;;;;;;21.39;35.33;102027.94;5013963;28;20530;-44
2022/05/02 10:47:03;;;;;;;10.95;5.93;;;;;;;21.60;34.45;102017.88;5013544;28;20038;-44
2022/05/02 10:49:55;;;;;;;44.22;7.70;;;;;;;21.51;35.71;102025.31;5013724;28;20064;-45
2022/05/02 10:52:42;;;;;;;9.15;5.55;;;;;;;21.89;34.21;102026.63;5013898;28;20025;-46
2022/05/02 10:55:17;;;;;;;8.55;6.00;;;;;;;22.16;34.48;102020.84;5013997;28;20477;-45
2022/05/02 10:57:54;;;;;;;9.18;6.05;;;;;;;22.33;34.24;102015.66;5013435;28;20113;-45
2022/05/02 11:00:21;;;;;;;13.40;5.60;;;;;;;22.25;34.38;102016.84;5013722;28;20029;-45
2022/05/02 11:03:26;;;;;;;9.63;5.90;;;;;;;21.54;33.67;102011.69;5013973;28;20028;-45
2022/05/02 11:06:03;;;;;;;7.72;5.60;;;;;;;21.96;34.72;102006.25;5012769;28;20034;-46
2022/05/02 11:08:51;;;;;;;8.10;5.20;;;;;;;22.39;32.97;102007.63;5011351;28;20485;-45
2022/05/02 11:11:39;;;;;;;10.48;5.65;;;;;;;21.70;33.73;102004.16;5012740;28;20026;-45
2022/05/02 11:14:33;;;;;;;7.40;4.80;;;;;;;20.64;36.09;102002.22;5012384;28;20034;-45
2022/05/02 11:17:15;;;;;;;10.40;6.30;;;;;;;19.69;36.07;102005.41;5013564;28;20469;-46
2022/05/02 11:22:56;;;;;;;10.57;5.78;;;;;;;20.10;36.26;102009.19;5014097;28;20217;-46
2022/05/02 11:25:24;;;;;;;10.65;6.00;;;;;;;19.58;36.45;102003.47;5013405;28;20092;-45
2022/05/02 11:28:04;;;;;;;12.43;6.72;;;;;;;20.34;35.33;101998.78;5013545;28;20057;-45
2022/05/02 11:30:42;;;;;;;11.70;6.85;;;;;;;19.06;36.86;101995.84;5013091;28;20041;-45
2022/05/02 11:33:27;;;;;;;9.27;6.60;;;;;;;20.07;35.76;101993.88;4999476;28;20037;-45
2022/05/02 11:35:56;;;;;;;10.70;6.95;;;;;;;20.67;34.68;102001.78;5017219;28;20030;-44
2022/05/02 11:38:46;;;;;;;10.80;6.30;;;;;;;20.52;34.85;101993.50;4999644;28;20032;-46
2022/05/02 11:41:17;;;;;;;8.63;5.97;;;;;;;21.56;34.24;101999.13;5017119;28;20018;-45
2022/05/02 11:43:44;;;;;;;11.07;6.00;;;;;;;22.25;32.49;101995.78;5016994;28;20137;-45
2022/05/02 11:46:26;;;;;;;9.15;6.65;;;;;;;22.16;31.97;101995.31;5017052;28;20465;-45
2022/05/02 11:49:12;;;;;;;7.93;6.13;;;;;;;22.20;32.40;101995.69;5017049;28;20037;-45
2022/05/02 11:51:50;;;;;;;9.02;6.57;;;;;;;22.26;32.82;102006.06;4998967;28;20052;-46
2022/05/02 11:54:27;;;;;;;11.15;5.90;;;;;;;22.33;32.57;101998.03;5017521;28;20033;-47
2022/05/02 11:56:59;;;;;;;9.52;5.88;;;;;;;22.19;32.14;102000.16;5016868;28;20033;-46
2022/05/02 11:59:38;;;;;;;7.60;5.57;;;;;;;22.01;33.40;101998.47;4999039;28;20060;-46
2022/05/02 12:02:25;;;;;;;10.80;6.47;;;;;;;21.70;32.48;101986.53;5016535;28;20026;-47
2022/05/02 12:04:52;;;;;;;8.80;5.70;;;;;;;22.22;32.33;101994.41;5016631;28;20113;-45
2022/05/02 12:07:27;;;;;;;12.30;6.22;;;;;;;22.37;32.42;101998.38;5016467;28;20080;-45
2022/05/02 12:10:01;;;;;;;7.85;5.90;;;;;;;22.22;31.70;101994.41;5016588;28;20037;-44
2022/05/02 12:12:27;;;;;;;11.10;6.35;;;;;;;20.90;33.68;101987.09;5016537;28;20022;-46
2022/05/02 12:15:01;;;;;;;10.77;5.65;;;;;;;21.81;33.07;101990.97;5016263;28;20069;-47